createdAt,value
2023-05-22T00:01:52.364Z,100.00
2023-05-22T00:04:22.253Z,100.00
2023-05-22T00:06:50.316Z,100.00
2023-05-22T00:09:17.938Z,100.00
2023-05-22T00:11:45.919Z,100.00
2023-05-22T00:14:16.570Z,100.00
2023-05-22T00:16:44.489Z,100.00
2023-05-22T00:19:17.088Z,100.00
2023-05-22T00:21:45.873Z,100.00
2023-05-22T00:24:23.457Z,100.00
2023-05-22T00:26:53.621Z,100.00
2023-05-22T00:29:20.838Z,100.00
2023-05-22T00:31:48.456Z,100.00
2023-05-22T00:34:19.449Z,100.00
2023-05-22T00:36:47.000Z,100.00
2023-05-22T00:39:14.701Z,100.00
2023-05-22T00:41:41.971Z,100.00
2023-05-22T00:44:12.434Z,100.00
2023-05-22T00:46:43.995Z,100.00
2023-05-22T00:49:16.973Z,100.00
2023-05-22T00:51:44.904Z,100.00
2023-05-22T00:54:14.469Z,100.00
2023-05-22T00:56:42.468Z,100.00
2023-05-22T00:59:09.476Z,100.00
2023-05-22T01:01:42.326Z,100.00
2023-05-22T01:04:13.690Z,100.00
2023-05-22T01:06:42.016Z,100.00
2023-05-22T01:09:09.705Z,100.00
2023-05-22T01:11:49.247Z,100.00
2023-05-22T01:14:30.238Z,100.00
2023-05-22T01:17:06.909Z,100.00
2023-05-22T01:20:02.606Z,100.00
2023-05-22T01:22:58.848Z,100.00
2023-05-22T01:25:35.648Z,100.00
2023-05-22T01:28:17.950Z,100.00
2023-05-22T01:30:51.252Z,100.00
2023-05-22T01:33:20.917Z,100.00
2023-05-22T01:35:56.383Z,100.00
2023-05-22T01:38:25.247Z,100.00
2023-05-22T01:41:03.271Z,100.00
2023-05-22T01:43:31.944Z,100.00
2023-05-22T01:46:00.194Z,100.00
2023-05-22T01:48:28.393Z,100.00
2023-05-22T01:50:57.918Z,100.00
2023-05-22T01:53:37.046Z,100.00
2023-05-22T01:56:17.254Z,100.00
2023-05-22T01:58:57.427Z,100.00
2023-05-22T02:01:28.567Z,100.00
2023-05-22T02:03:59.497Z,100.00
2023-05-22T02:06:35.540Z,100.00
2023-05-22T02:09:03.914Z,100.00
2023-05-22T02:11:34.443Z,100.00
2023-05-22T02:14:02.630Z,100.00
2023-05-22T02:16:30.691Z,100.00
2023-05-22T02:19:06.718Z,100.00
2023-05-22T02:21:35.846Z,100.00
2023-05-22T02:24:03.896Z,100.00
2023-05-22T02:26:34.741Z,100.00
2023-05-22T02:29:04.660Z,100.00
2023-05-22T02:31:31.577Z,100.00
2023-05-22T02:33:58.696Z,100.00
2023-05-22T02:36:26.420Z,100.00
2023-05-22T02:38:54.858Z,100.00
2023-05-22T02:41:22.321Z,100.00
2023-05-22T02:43:49.094Z,100.00
2023-05-22T02:46:24.083Z,100.00
2023-05-22T02:48:51.046Z,100.00
2023-05-22T02:51:17.972Z,100.00
2023-05-22T02:53:46.231Z,100.00
2023-05-22T02:56:13.250Z,100.00
2023-05-22T02:58:40.325Z,100.00
2023-05-22T03:01:07.398Z,100.00
2023-05-22T03:03:34.353Z,100.00
2023-05-22T03:06:01.906Z,100.00
2023-05-22T03:08:29.172Z,100.00
2023-05-22T03:11:02.306Z,100.00
2023-05-22T03:13:29.249Z,100.00
2023-05-22T03:15:56.516Z,100.00
2023-05-22T03:18:25.912Z,100.00
2023-05-22T03:20:54.368Z,100.00
2023-05-22T03:23:21.388Z,100.00
2023-05-22T03:25:48.272Z,100.00
2023-05-22T03:28:16.262Z,100.00
2023-05-22T03:30:43.132Z,100.00
2023-05-22T03:33:11.915Z,100.00
2023-05-22T03:35:38.807Z,100.00
2023-05-22T03:38:06.005Z,100.00
2023-05-22T03:40:32.964Z,100.00
2023-05-22T03:43:00.221Z,100.00
2023-05-22T03:45:27.505Z,100.00
2023-05-22T03:47:54.412Z,100.00
2023-05-22T03:50:21.854Z,100.00
2023-05-22T03:52:48.735Z,100.00
2023-05-22T03:55:16.479Z,100.00
2023-05-22T03:57:43.346Z,100.00
2023-05-22T04:00:12.029Z,100.00
2023-05-22T04:02:45.275Z,100.00
2023-05-22T04:05:12.696Z,100.00
2023-05-22T04:07:39.775Z,100.00
2023-05-22T04:10:07.577Z,100.00
2023-05-22T04:12:34.798Z,100.00
2023-05-22T04:15:01.690Z,100.00
2023-05-22T04:17:35.833Z,100.00
2023-05-22T04:20:02.687Z,100.00
2023-05-22T04:22:31.068Z,100.00
2023-05-22T04:24:58.362Z,100.00
2023-05-22T04:27:30.369Z,100.00
2023-05-22T04:30:00.272Z,100.00
2023-05-22T04:32:27.677Z,100.00
2023-05-22T04:34:54.595Z,100.00
2023-05-22T04:37:21.654Z,100.00
2023-05-22T04:39:48.536Z,100.00
2023-05-22T04:42:16.189Z,100.00
2023-05-22T04:44:44.002Z,100.00
2023-05-22T04:47:14.633Z,100.00
2023-05-22T04:49:42.661Z,100.00
2023-05-22T04:52:12.696Z,100.00
2023-05-22T04:54:40.014Z,100.00
2023-05-22T04:57:07.005Z,100.00
2023-05-22T04:59:40.094Z,100.00
2023-05-22T05:02:07.746Z,100.00
2023-05-22T05:04:34.859Z,100.00
2023-05-22T05:07:02.762Z,100.00
2023-05-22T05:09:40.286Z,100.00
2023-05-22T05:12:07.254Z,100.00
2023-05-22T05:14:34.008Z,100.00
2023-05-22T05:20:15.224Z,100.00
2023-05-22T05:22:44.135Z,100.00
2023-05-22T05:25:12.710Z,100.00
2023-05-22T05:27:40.196Z,100.00
2023-05-22T05:30:08.855Z,100.00
2023-05-22T05:32:36.129Z,100.00
2023-05-22T05:35:12.448Z,100.00
2023-05-22T05:37:39.279Z,99.28
2023-05-22T05:40:12.589Z,99.30
2023-05-22T05:42:42.679Z,96.68
2023-05-22T05:45:11.696Z,93.96
2023-05-22T05:47:51.647Z,93.02
2023-05-22T05:50:21.196Z,88.28
2023-05-22T05:52:49.162Z,87.16
2023-05-22T05:55:16.357Z,85.50
2023-05-22T05:57:43.511Z,85.79
2023-05-22T06:00:13.964Z,83.70
2023-05-22T06:02:42.275Z,79.40
2023-05-22T06:05:10.409Z,77.43
2023-05-22T06:07:38.304Z,77.44
2023-05-22T06:10:13.100Z,73.21
2023-05-22T06:12:43.372Z,73.23
2023-05-22T06:15:13.586Z,69.26
2023-05-22T06:17:41.462Z,64.14
2023-05-22T06:20:22.170Z,63.81
2023-05-22T06:22:49.020Z,62.25
2023-05-22T06:25:15.882Z,61.48
2023-05-22T06:27:42.913Z,62.90
2023-05-22T06:30:16.898Z,60.70
2023-05-22T06:32:49.551Z,59.10
2023-05-22T06:35:20.032Z,59.44
2023-05-22T06:37:47.023Z,59.92
2023-05-22T06:40:14.355Z,60.24
2023-05-22T06:42:41.514Z,61.80
2023-05-22T06:45:11.857Z,61.20
2023-05-22T06:47:49.321Z,59.49
2023-05-22T06:50:26.784Z,59.13
2023-05-22T06:53:16.620Z,60.11
2023-05-22T06:55:43.908Z,60.45
2023-05-22T06:58:11.003Z,61.45
2023-05-22T07:00:38.580Z,58.63
2023-05-22T07:03:07.027Z,59.55
2023-05-22T07:05:34.378Z,58.91
2023-05-22T07:08:01.947Z,55.69
2023-05-22T07:10:31.875Z,55.81
2023-05-22T07:13:04.307Z,59.06
2023-05-22T07:15:31.558Z,56.39
2023-05-22T07:17:59.091Z,58.33
2023-05-22T07:20:29.149Z,57.78
2023-05-22T07:23:05.906Z,60.78
2023-05-22T07:25:32.734Z,61.15
2023-05-22T07:28:02.481Z,59.94
2023-05-22T07:30:32.630Z,61.25
2023-05-22T07:33:03.121Z,58.83
2023-05-22T07:35:33.026Z,57.77
2023-05-22T07:38:00.070Z,57.05
2023-05-22T07:40:27.306Z,55.88
2023-05-22T07:43:04.984Z,54.87
2023-05-22T07:45:31.888Z,52.03
2023-05-22T07:48:01.177Z,53.17
2023-05-22T07:50:30.685Z,52.75
2023-05-22T07:52:57.753Z,52.41
2023-05-22T07:55:24.681Z,52.65
2023-05-22T07:57:56.391Z,52.63
2023-05-22T08:00:23.870Z,53.62
2023-05-22T08:02:50.788Z,53.48
2023-05-22T08:05:17.764Z,54.37
2023-05-22T08:07:54.629Z,55.00
2023-05-22T08:10:22.228Z,53.17
2023-05-22T08:12:52.215Z,53.99
2023-05-22T08:15:19.633Z,52.70
2023-05-22T08:18:00.491Z,52.44
2023-05-22T08:20:29.845Z,53.55
2023-05-22T08:22:59.630Z,53.32
2023-05-22T08:25:26.866Z,51.88
2023-05-22T08:27:53.970Z,51.92
2023-05-22T08:30:22.678Z,50.24
2023-05-22T08:32:52.723Z,52.08
2023-05-22T08:35:22.831Z,51.89
2023-05-22T08:37:50.364Z,52.46
2023-05-22T08:40:20.277Z,51.28
2023-05-22T08:42:54.624Z,51.14
2023-05-22T08:45:21.609Z,54.76
2023-05-22T08:47:53.982Z,50.40
2023-05-22T08:50:22.711Z,52.27
2023-05-22T08:52:57.360Z,50.60
2023-05-22T08:55:25.051Z,49.85
2023-05-22T08:57:54.211Z,50.60
2023-05-22T09:00:22.311Z,51.74
2023-05-22T09:02:52.958Z,50.16
2023-05-22T09:05:19.988Z,49.64
2023-05-22T09:07:49.225Z,48.90
2023-05-22T09:10:16.390Z,50.66
2023-05-22T09:16:13.182Z,51.95
2023-05-22T09:18:54.229Z,52.79
2023-05-22T09:24:00.241Z,53.84
2023-05-22T09:26:29.576Z,52.23
2023-05-22T09:29:01.381Z,53.96
2023-05-22T09:31:31.938Z,53.57
2023-05-22T09:34:00.936Z,54.32
2023-05-22T09:36:42.027Z,55.66
2023-05-22T09:39:10.261Z,55.68
2023-05-22T09:44:34.234Z,52.75
2023-05-22T09:47:01.277Z,51.70
2023-05-22T09:49:29.436Z,49.34
2023-05-22T09:52:00.029Z,49.52
2023-05-22T09:54:35.337Z,51.56
2023-05-22T09:57:07.595Z,52.89
2023-05-22T09:59:40.361Z,52.19
2023-05-22T10:02:10.301Z,52.16
2023-05-22T10:04:41.013Z,50.11
2023-05-22T10:07:11.732Z,50.43
2023-05-22T10:09:41.021Z,49.83
2023-05-22T10:12:10.642Z,50.64
2023-05-22T10:14:38.472Z,50.26
2023-05-22T10:17:12.561Z,52.20
2023-05-22T10:19:49.788Z,51.59
2023-05-22T10:22:21.806Z,51.67
2023-05-22T10:24:50.686Z,52.67
2023-05-22T10:27:21.729Z,51.00
2023-05-22T10:30:01.046Z,50.19
2023-05-22T10:32:36.265Z,49.83
2023-05-22T10:35:21.252Z,50.62
2023-05-22T10:37:55.330Z,49.53
2023-05-22T10:40:34.576Z,48.99
2023-05-22T10:43:04.724Z,51.91
2023-05-22T10:45:34.495Z,52.90
2023-05-22T10:48:10.048Z,54.88
2023-05-22T10:50:37.261Z,53.36
2023-05-22T10:53:31.846Z,51.54
2023-05-22T10:56:16.921Z,51.55
2023-05-22T10:59:00.509Z,52.89
2023-05-22T11:01:27.788Z,50.62
2023-05-22T11:03:55.239Z,53.43
2023-05-22T11:06:31.669Z,53.03
2023-05-22T11:08:59.400Z,51.46
2023-05-22T11:11:27.673Z,49.71
2023-05-22T11:14:03.626Z,51.70
2023-05-22T11:16:37.826Z,50.96
2023-05-22T11:19:22.592Z,52.94
2023-05-22T11:21:52.093Z,53.03
2023-05-22T11:24:20.071Z,52.33
2023-05-22T11:27:03.409Z,54.55
2023-05-22T11:29:39.044Z,54.23
2023-05-22T11:32:23.827Z,52.86
2023-05-22T11:35:01.853Z,53.76
2023-05-22T11:37:33.418Z,54.23
2023-05-22T11:40:15.901Z,53.87
2023-05-22T11:42:43.797Z,55.50
2023-05-22T11:45:22.056Z,53.45
2023-05-22T11:47:50.681Z,53.68
2023-05-22T11:50:40.263Z,56.08
2023-05-22T11:53:09.105Z,56.27
2023-05-22T11:55:36.956Z,54.34
2023-05-22T11:58:07.191Z,54.15
2023-05-22T12:00:34.061Z,53.35
2023-05-22T12:03:01.841Z,53.30
2023-05-22T12:05:32.445Z,53.13
2023-05-22T12:08:00.198Z,50.43
2023-05-22T12:10:27.846Z,47.61
2023-05-22T12:12:55.666Z,46.96
2023-05-22T12:15:25.263Z,47.68
2023-05-22T12:17:55.924Z,47.25
2023-05-22T12:20:31.310Z,47.36
2023-05-22T12:23:07.574Z,47.08
2023-05-22T12:25:40.121Z,47.52
2023-05-22T12:28:07.740Z,46.26
2023-05-22T12:30:56.598Z,47.06
2023-05-22T12:33:33.580Z,46.56
2023-05-22T12:36:01.382Z,46.23
2023-05-22T12:38:34.049Z,48.61
2023-05-22T12:41:03.021Z,47.07
2023-05-22T12:43:39.506Z,44.41
2023-05-22T12:46:06.652Z,46.23
2023-05-22T12:48:42.887Z,43.72
2023-05-22T12:51:09.875Z,43.33
2023-05-22T12:53:36.935Z,42.75
2023-05-22T12:56:04.517Z,44.33
2023-05-22T12:58:34.669Z,44.69
2023-05-22T13:01:04.155Z,46.74
2023-05-22T13:03:31.605Z,47.51
2023-05-22T13:05:58.452Z,46.82
2023-05-22T13:08:25.708Z,48.57
2023-05-22T13:10:52.776Z,48.82
2023-05-22T13:13:19.715Z,48.96
2023-05-22T13:15:46.798Z,50.21
2023-05-22T13:18:16.863Z,50.84
2023-05-22T13:20:43.905Z,51.22
2023-05-22T13:23:10.868Z,49.79
2023-05-22T13:25:38.183Z,49.03
2023-05-22T13:28:05.089Z,48.63
2023-05-22T13:30:32.649Z,49.61
2023-05-22T13:32:59.652Z,47.96
2023-05-22T13:35:27.026Z,49.47
2023-05-22T13:37:54.244Z,50.72
2023-05-22T13:40:21.455Z,51.28
2023-05-22T13:42:48.320Z,53.88
2023-05-22T13:45:18.549Z,53.15
2023-05-22T13:47:45.643Z,54.67
2023-05-22T13:50:12.629Z,61.02
2023-05-22T13:52:39.469Z,72.25
2023-05-22T13:55:07.122Z,76.98
2023-05-22T13:57:48.956Z,81.14
2023-05-22T14:00:16.596Z,88.54
2023-05-22T14:02:47.851Z,92.07
2023-05-22T14:05:15.822Z,89.72
2023-05-22T14:07:43.590Z,94.05
2023-05-22T14:10:10.753Z,95.01
2023-05-22T14:12:38.800Z,94.15
2023-05-22T14:15:06.870Z,99.44
2023-05-22T14:17:37.950Z,100.00
2023-05-22T14:20:05.823Z,100.00
2023-05-22T14:22:38.553Z,100.00
2023-05-22T14:25:12.391Z,100.00
2023-05-22T14:27:40.086Z,100.00
2023-05-22T14:30:11.175Z,100.00
2023-05-22T14:32:41.220Z,100.00
2023-05-22T14:35:08.664Z,100.00
2023-05-22T14:37:37.418Z,100.00
2023-05-22T14:40:05.220Z,100.00
2023-05-22T14:42:32.682Z,100.00
2023-05-22T14:44:59.971Z,100.00
2023-05-22T14:47:27.547Z,100.00
2023-05-22T14:49:57.612Z,100.00
2023-05-22T14:52:30.232Z,100.00
2023-05-22T14:54:58.344Z,100.00
2023-05-22T14:57:25.548Z,100.00
2023-05-22T14:59:55.000Z,100.00
2023-05-22T15:02:24.840Z,100.00
2023-05-22T15:04:52.154Z,100.00
2023-05-22T15:07:19.797Z,100.00
2023-05-22T15:09:48.400Z,100.00
2023-05-22T15:12:18.973Z,100.00
2023-05-22T15:14:47.050Z,100.00
2023-05-22T15:17:14.778Z,100.00
2023-05-22T15:19:44.071Z,100.00
2023-05-22T15:22:19.348Z,100.00
2023-05-22T15:25:04.856Z,100.00
2023-05-22T15:27:33.370Z,100.00
2023-05-22T15:30:00.206Z,100.00
2023-05-22T15:32:27.373Z,100.00
2023-05-22T15:34:54.269Z,100.00
2023-05-22T15:37:21.376Z,100.00
2023-05-22T15:39:48.249Z,100.00
2023-05-22T15:42:15.380Z,100.00
2023-05-22T15:44:42.269Z,100.00
2023-05-22T15:47:09.018Z,100.00
2023-05-22T15:49:36.108Z,100.00
2023-05-22T15:52:03.245Z,100.00
2023-05-22T15:54:30.035Z,100.00
2023-05-22T15:56:57.026Z,100.00
2023-05-22T15:59:24.054Z,100.00
2023-05-22T16:01:51.247Z,100.00
2023-05-22T16:04:18.175Z,100.00
2023-05-22T16:06:45.177Z,100.00
2023-05-22T16:09:12.662Z,100.00
2023-05-22T16:11:39.597Z,100.00
2023-05-22T16:14:06.828Z,100.00
2023-05-22T16:16:33.945Z,100.00
2023-05-22T16:19:00.942Z,100.00
2023-05-22T16:21:27.992Z,100.00
2023-05-22T16:23:54.931Z,100.00
2023-05-22T16:26:22.988Z,100.00
2023-05-22T16:28:50.848Z,100.00
2023-05-22T16:31:20.045Z,100.00
2023-05-22T16:33:47.056Z,100.00
2023-05-22T16:36:13.909Z,100.00
2023-05-22T16:38:41.435Z,100.00
2023-05-22T16:41:08.435Z,100.00
2023-05-22T16:43:37.069Z,100.00
2023-05-22T16:46:04.310Z,100.00
2023-05-22T16:48:31.059Z,100.00
2023-05-22T16:50:58.011Z,100.00
2023-05-22T16:53:25.432Z,100.00
2023-05-22T16:55:52.362Z,100.00
2023-05-22T16:58:19.247Z,100.00
2023-05-22T17:00:47.106Z,100.00
2023-05-22T17:03:17.444Z,100.00
2023-05-22T17:05:44.462Z,100.00
2023-05-22T17:08:11.746Z,100.00
2023-05-22T17:10:38.728Z,100.00
2023-05-22T17:13:05.791Z,100.00
2023-05-22T17:15:32.856Z,100.00
2023-05-22T17:17:59.838Z,100.00
2023-05-22T17:20:28.840Z,100.00
2023-05-22T17:22:55.954Z,100.00
2023-05-22T17:25:23.208Z,100.00
2023-05-22T17:27:50.115Z,100.00
2023-05-22T17:30:17.555Z,100.00
2023-05-22T17:32:45.376Z,100.00
2023-05-22T17:35:12.115Z,100.00
2023-05-22T17:37:39.092Z,100.00
2023-05-22T17:40:06.957Z,100.00
2023-05-22T17:42:36.429Z,100.00
2023-05-22T17:45:05.757Z,100.00
2023-05-22T17:47:32.642Z,100.00
2023-05-22T17:49:59.481Z,100.00
2023-05-22T17:52:26.994Z,100.00
2023-05-22T17:54:56.007Z,100.00
2023-05-22T17:57:26.434Z,100.00
2023-05-22T17:59:57.182Z,100.00
2023-05-22T18:02:24.692Z,100.00
2023-05-22T18:04:51.919Z,100.00
2023-05-22T18:07:29.165Z,100.00
2023-05-22T18:09:56.935Z,100.00
2023-05-22T18:12:31.784Z,100.00
2023-05-22T18:15:00.781Z,100.00
2023-05-22T18:17:28.094Z,100.00
2023-05-22T18:19:55.363Z,100.00
2023-05-22T18:22:31.535Z,100.00
2023-05-22T18:24:59.277Z,100.00
2023-05-22T18:27:29.717Z,100.00
2023-05-22T18:29:58.075Z,100.00
2023-05-22T18:32:25.562Z,100.00
2023-05-22T18:34:56.055Z,100.00
2023-05-22T18:37:30.219Z,100.00
2023-05-22T18:39:57.772Z,100.00
2023-05-22T18:42:25.360Z,100.00
2023-05-22T18:44:55.868Z,100.00
2023-05-22T18:47:23.030Z,100.00
2023-05-22T18:49:50.364Z,100.00
2023-05-22T18:52:24.058Z,100.00
2023-05-22T18:54:51.605Z,100.00
2023-05-22T18:57:21.954Z,100.00
2023-05-22T18:59:50.125Z,100.00
2023-05-22T19:02:21.528Z,100.00
2023-05-22T19:04:49.508Z,100.00
2023-05-22T19:07:16.975Z,100.00
2023-05-22T19:09:44.329Z,100.00
2023-05-22T19:12:11.645Z,100.00
2023-05-22T19:14:38.985Z,100.00
2023-05-22T19:17:06.758Z,100.00
2023-05-22T19:19:34.251Z,100.00
2023-05-22T19:22:01.489Z,100.00
2023-05-22T19:24:28.576Z,100.00
2023-05-22T19:27:06.337Z,100.00
2023-05-22T19:29:33.599Z,100.00
2023-05-22T19:32:04.240Z,100.00
2023-05-22T19:34:31.857Z,100.00
2023-05-22T19:36:58.890Z,100.00
2023-05-22T19:39:26.115Z,100.00
2023-05-22T19:42:04.536Z,100.00
2023-05-22T19:44:32.284Z,100.00
2023-05-22T19:47:03.741Z,100.00
2023-05-22T19:49:32.250Z,100.00
2023-05-22T19:52:00.638Z,100.00
2023-05-22T19:54:28.908Z,100.00
2023-05-22T19:56:56.597Z,100.00
2023-05-22T19:59:24.021Z,100.00
2023-05-22T20:01:54.733Z,100.00
2023-05-22T20:04:22.901Z,100.00
2023-05-22T20:06:51.669Z,100.00
2023-05-22T20:09:19.612Z,100.00
2023-05-22T20:11:51.720Z,100.00
2023-05-22T20:14:20.455Z,100.00
2023-05-22T20:16:50.690Z,100.00
2023-05-22T20:19:18.520Z,100.00
2023-05-22T20:21:49.762Z,100.00
2023-05-22T20:24:22.786Z,100.00
2023-05-22T20:26:50.360Z,100.00
2023-05-22T20:29:18.531Z,100.00
2023-05-22T20:31:46.545Z,100.00
2023-05-22T20:34:23.035Z,100.00
2023-05-22T20:36:53.757Z,100.00
2023-05-22T20:39:25.280Z,100.00
2023-05-22T20:41:59.349Z,100.00
2023-05-22T20:44:27.553Z,100.00
2023-05-22T20:47:04.889Z,100.00
2023-05-22T20:49:35.436Z,100.00
2023-05-22T20:52:06.308Z,100.00
2023-05-22T20:54:38.504Z,100.00
2023-05-22T20:57:25.598Z,100.00
2023-05-22T20:59:59.011Z,100.00
2023-05-22T21:02:38.302Z,100.00
2023-05-22T21:05:06.841Z,100.00
2023-05-22T21:07:47.012Z,100.00
2023-05-22T21:10:18.166Z,100.00
2023-05-22T21:12:49.117Z,100.00
2023-05-22T21:15:24.585Z,100.00
2023-05-22T21:17:52.002Z,100.00
2023-05-22T21:20:20.016Z,100.00
2023-05-22T21:23:32.727Z,100.00
2023-05-22T21:25:54.191Z,100.00
2023-05-22T21:28:24.583Z,100.00
2023-05-22T21:30:52.694Z,100.00
2023-05-22T21:33:20.908Z,100.00
2023-05-22T21:36:21.935Z,100.00
2023-05-22T21:38:40.080Z,100.00
2023-05-22T21:41:07.921Z,100.00
2023-05-22T21:43:44.475Z,100.00
2023-05-22T21:46:12.771Z,100.00
2023-05-22T21:48:40.885Z,100.00
2023-05-22T21:51:10.035Z,100.00
2023-05-22T21:53:37.641Z,100.00
2023-05-22T21:56:05.634Z,100.00
2023-05-22T21:58:33.153Z,100.00
2023-05-22T22:01:00.798Z,100.00
2023-05-22T22:03:29.409Z,100.00
2023-05-22T22:06:00.515Z,100.00
2023-05-22T22:08:37.563Z,100.00
2023-05-22T22:11:12.806Z,100.00
2023-05-22T22:13:40.122Z,100.00
2023-05-22T22:16:07.693Z,100.00
2023-05-22T22:18:34.867Z,100.00
2023-05-22T22:21:02.591Z,100.00
2023-05-22T22:23:38.921Z,100.00
2023-05-22T22:26:09.802Z,100.00
2023-05-22T22:28:40.023Z,100.00
2023-05-22T22:31:07.681Z,100.00
2023-05-22T22:33:38.298Z,100.00
2023-05-22T22:36:05.807Z,100.00
2023-05-22T22:38:35.680Z,100.00
2023-05-22T22:41:05.026Z,100.00
2023-05-22T22:43:36.481Z,100.00
2023-05-22T22:46:09.902Z,100.00
2023-05-22T22:48:42.576Z,100.00
2023-05-22T22:51:10.026Z,100.00
2023-05-22T22:53:37.731Z,100.00
2023-05-22T22:56:07.721Z,100.00
2023-05-22T22:58:35.111Z,100.00
2023-05-22T23:01:05.709Z,100.00
2023-05-22T23:03:40.498Z,100.00
2023-05-22T23:06:07.800Z,100.00
2023-05-22T23:08:35.794Z,100.00
2023-05-22T23:11:03.028Z,100.00
2023-05-22T23:13:32.937Z,100.00
2023-05-22T23:16:00.363Z,100.00
2023-05-22T23:18:27.496Z,100.00
2023-05-22T23:20:54.502Z,100.00
2023-05-22T23:23:21.597Z,100.00
2023-05-22T23:25:48.854Z,100.00
2023-05-22T23:28:18.665Z,100.00
2023-05-22T23:30:45.924Z,100.00
2023-05-22T23:33:12.857Z,100.00
2023-05-22T23:35:40.256Z,100.00
2023-05-22T23:38:07.408Z,100.00
2023-05-22T23:40:34.406Z,100.00
2023-05-22T23:43:01.762Z,100.00
2023-05-22T23:45:28.625Z,100.00
2023-05-22T23:47:55.750Z,100.00
2023-05-22T23:50:22.828Z,100.00
2023-05-22T23:52:49.707Z,100.00
2023-05-22T23:55:17.237Z,100.00
2023-05-22T23:57:44.584Z,100.00
